Terminal Aerodrome Forecast
Issued by NWS

Home | Current Version | Previous Version | Graphics & Text | Print | Product List | Glossary On
Versions: 1 2 3 4 5 6 7 8 9 10 11 12 13 14 15 16 17 18 19 20 21 22 23 24 25 26 27
000
FTUS43 KGRB 241557 AAC
TAFRHI
TAF AMD
KRHI 241557Z 2416/2512 08003KT 6SM BR OVC016
     FM241700 10006KT P6SM SCT150
     FM241900 10010KT P6SM SCT030 BKN070
     FM242100 10010G19KT P6SM OVC030
     FM250100 10008G15KT 3SM -SN OVC008
     FM250300 10008KT 1SM -SN BR OVC006 WS012/12030KT
      TEMPO 2505/2508 1/2SM SN OVC003
     FM251000 24010G20KT 2SM -SHSN BR OVC010=

USA.gov is the U.S. government's official web portal to all federal, state and local government web resources and services.